Terminal Aerodrome Forecast
Issued by NWS

Home | Current Version | Previous Version | Graphics & Text | Print | Product List | Glossary On
Versions: 1 2 3 4 5 6 7 8 9 10 11 12
000
FTUS45 KGGW 231720
TAFOLF
TAF
KOLF 231720Z 2318/2418 27019G27KT P6SM FEW150
     FM240300 28012KT P6SM SCT080
     FM241200 29013KT P6SM BKN020
     FM241500 30018G27KT P6SM BKN020=

USA.gov is the U.S. government's official web portal to all federal, state and local government web resources and services.